Airfield :
LOGIN :

Register | Disclaimer

   EN    FR    IT 

 










Legend :    VFR   Marginal VFR   IFR   Intensive IFR   Very Intensive IFR
Visi :
Ceiling :
>= 8 km
>= 3000ft
5 to 8 km
1000 to 3000 ft
1500m to 5 km
500 to 1000 ft
800 to 1500m
200 to 500 ft
< 800m
< 200 ft
Symbols :   Thunderstorms  Fog  Heavy snow  Heavy precipitations  Wind > 20 kt
SIGMETs :     Misc.  Thunderstorms  Icing  Turbulence  Mountain Waves  Volcanic Ashes







- Airport Elevation : 1234 ft
- IATA code : LUX


ELLX - Luxembourg Findel

CURRENT METAR :
  • 212220Z AUTO VRB02KT 9999 NCD 16/11 Q1013 NOSIG

EXPIRED METARs :
  • 212150Z 19004KT CAVOK 16/11 Q1013 NOSIG
  • 212120Z 17003KT CAVOK 17/11 Q1013 NOSIG
  • 212050Z VRB02KT CAVOK 18/11 Q1013 NOSIG
  • 212020Z 07004KT CAVOK 18/11 Q1012 NOSIG
  • 211950Z 06005KT CAVOK 19/11 Q1012 NOSIG

TAF TAF ELLX
Valid from the 21 at 18:00 until the 23 at 00:00 UTC


211700Z 2118/2224 18005KT 9999 FEW045TCU
TEMPO 2118/2121 4500 SHRA BKN040CB
PROB40
TEMPO 2118/2121 18010G25KT 3000 TSRA BKN040CB
BECMG 2122/2124 VRB02KT
TEMPO 2202/2205 4000 BR
TEMPO 2213/2219 32010G30KT 2500 TSRAGR BKN025CB
ATIS : +352 4798 27300
Met : +352 4798 27010 / 27050
No reported NOTAMs for that airfield.



MET'MAP, your aeronautical weather chart ! - Copyright ORBIFLY December 2007 - Disclaimer

ORBIFLY MET'MAP TEAM :

Programming & Development : Alexandra Zaïnal
Concept & Development : Baudouin d'Aumeries
Co-Development & Prog : Marc-Olivier Méhu
Technical & hardware support : Manuel Goepfert

Contact : metmap@orbifly.com




SOURCES & CREDITS :

   NOAA